Sunnyside, Florida
Current Conditions -  °F | °C
As of 3:53 PM on Tuesday 21 Oct 2014 (Local Time) from KECP Reporting Station
Clear Clear  
Wind Chill: 81°   Ceiling: Unl
Heat Index: 81°   Visibility: 10mi
Dew Point: 53°   Wind: 5mph
Humidity: 38%   Direction: 20°NNE
Pressure: 29.94"   Gusts: NA
Location:  30.25°N, 85.95°W
Report Text: KECP 211953Z 02004KT 10SM CLR 27/12 A2994 RMK AO2 SLP149 T02720117
Loading
Personal Weather Stations






























Interactive Weather Map
Tropical Storm Tracking
New forecast layout! Learn more

10-Day Weather Forecast

Advertisements
Track Severe Weather on mobile